sensor_id;sensor_type;location;lat;lon;timestamp;pressure;altitude;pressure_sealevel;temperature;humidity
51147;BME280;37207;53.060;18.726;2023-05-02T00:00:54;100509.07;;;10.00;56.42
51147;BME280;37207;53.060;18.726;2023-05-02T00:03:20;100505.05;;;10.00;56.46
51147;BME280;37207;53.060;18.726;2023-05-02T00:05:47;100505.04;;;9.99;56.27
51147;BME280;37207;53.060;18.726;2023-05-02T00:08:14;100501.05;;;9.97;56.49
51147;BME280;37207;53.060;18.726;2023-05-02T00:10:41;100502.09;;;9.96;56.56
51147;BME280;37207;53.060;18.726;2023-05-02T00:13:08;100499.95;;;9.94;56.45
51147;BME280;37207;53.060;18.726;2023-05-02T00:15:34;100495.67;;;9.93;56.59
51147;BME280;37207;53.060;18.726;2023-05-02T00:18:01;100491.45;;;9.93;56.71
51147;BME280;37207;53.060;18.726;2023-05-02T00:20:27;100487.48;;;9.92;56.76
51147;BME280;37207;53.060;18.726;2023-05-02T00:22:55;100484.55;;;9.91;56.73
51147;BME280;37207;53.060;18.726;2023-05-02T00:25:22;100483.84;;;9.90;56.98
51147;BME280;37207;53.060;18.726;2023-05-02T00:27:49;100482.82;;;9.88;56.88
51147;BME280;37207;53.060;18.726;2023-05-02T00:30:16;100474.27;;;9.86;56.86
51147;BME280;37207;53.060;18.726;2023-05-02T00:32:43;100472.36;;;9.85;56.90
51147;BME280;37207;53.060;18.726;2023-05-02T00:35:10;100470.81;;;9.85;56.96
51147;BME280;37207;53.060;18.726;2023-05-02T00:37:37;100474.01;;;9.84;57.05
51147;BME280;37207;53.060;18.726;2023-05-02T00:40:05;100469.11;;;9.85;56.99
51147;BME280;37207;53.060;18.726;2023-05-02T00:42:33;100465.92;;;9.84;57.00
51147;BME280;37207;53.060;18.726;2023-05-02T00:45:02;100465.76;;;9.82;57.16
51147;BME280;37207;53.060;18.726;2023-05-02T00:47:31;100460.92;;;9.81;57.02
51147;BME280;37207;53.060;18.726;2023-05-02T00:49:58;100454.20;;;9.81;57.10
51147;BME280;37207;53.060;18.726;2023-05-02T00:52:27;100452.52;;;9.79;57.30
51147;BME280;37207;53.060;18.726;2023-05-02T00:54:54;100452.95;;;9.77;57.31
51147;BME280;37207;53.060;18.726;2023-05-02T00:57:21;100453.83;;;9.75;57.26
51147;BME280;37207;53.060;18.726;2023-05-02T00:59:48;100450.05;;;9.74;57.31
51147;BME280;37207;53.060;18.726;2023-05-02T01:02:42;100450.58;;;9.72;57.23
51147;BME280;37207;53.060;18.726;2023-05-02T01:05:18;100446.84;;;9.70;57.38
51147;BME280;37207;53.060;18.726;2023-05-02T01:08:12;100445.17;;;9.68;57.39
51147;BME280;37207;53.060;18.726;2023-05-02T01:10:53;100447.45;;;9.65;57.53
51147;BME280;37207;53.060;18.726;2023-05-02T01:13:28;100441.90;;;9.63;57.60
51147;BME280;37207;53.060;18.726;2023-05-02T01:15:58;100443.79;;;9.62;57.57
51147;BME280;37207;53.060;18.726;2023-05-02T01:18:33;100441.60;;;9.60;57.72
51147;BME280;37207;53.060;18.726;2023-05-02T01:21:05;100441.20;;;9.57;57.77
51147;BME280;37207;53.060;18.726;2023-05-02T01:23:59;100439.46;;;9.55;57.72
51147;BME280;37207;53.060;18.726;2023-05-02T01:26:50;100442.05;;;9.52;57.70
51147;BME280;37207;53.060;18.726;2023-05-02T01:29:19;100438.52;;;9.50;57.86
51147;BME280;37207;53.060;18.726;2023-05-02T01:31:49;100439.65;;;9.48;57.93
51147;BME280;37207;53.060;18.726;2023-05-02T01:34:19;100433.91;;;9.46;57.96
51147;BME280;37207;53.060;18.726;2023-05-02T01:36:48;100438.36;;;9.45;57.91
51147;BME280;37207;53.060;18.726;2023-05-02T01:39:20;100435.98;;;9.44;58.07
51147;BME280;37207;53.060;18.726;2023-05-02T01:41:51;100432.39;;;9.41;58.13
51147;BME280;37207;53.060;18.726;2023-05-02T01:44:20;100433.84;;;9.41;58.15
51147;BME280;37207;53.060;18.726;2023-05-02T01:46:47;100428.35;;;9.39;58.17
51147;BME280;37207;53.060;18.726;2023-05-02T01:49:15;100429.99;;;9.38;58.07
51147;BME280;37207;53.060;18.726;2023-05-02T01:51:51;100426.66;;;9.37;58.36
51147;BME280;37207;53.060;18.726;2023-05-02T01:54:20;100424.24;;;9.36;58.44
51147;BME280;37207;53.060;18.726;2023-05-02T01:56:48;100418.08;;;9.35;58.54
51147;BME280;37207;53.060;18.726;2023-05-02T01:59:17;100415.86;;;9.34;58.56
51147;BME280;37207;53.060;18.726;2023-05-02T02:01:47;100416.06;;;9.33;58.58
51147;BME280;37207;53.060;18.726;2023-05-02T02:04:16;100414.84;;;9.32;58.58
51147;BME280;37207;53.060;18.726;2023-05-02T02:06:47;100410.02;;;9.31;58.68
51147;BME280;37207;53.060;18.726;2023-05-02T02:09:15;100413.11;;;9.31;58.66
51147;BME280;37207;53.060;18.726;2023-05-02T02:14:37;100406.70;;;9.27;58.97
51147;BME280;37207;53.060;18.726;2023-05-02T02:17:08;100404.33;;;9.26;58.91
51147;BME280;37207;53.060;18.726;2023-05-02T02:19:38;100402.55;;;9.24;59.09
51147;BME280;37207;53.060;18.726;2023-05-02T02:22:08;100399.27;;;9.22;59.22
51147;BME280;37207;53.060;18.726;2023-05-02T02:24:39;100397.94;;;9.22;59.24
51147;BME280;37207;53.060;18.726;2023-05-02T02:27:06;100400.34;;;9.21;59.33
51147;BME280;37207;53.060;18.726;2023-05-02T02:29:33;100399.55;;;9.21;59.41
51147;BME280;37207;53.060;18.726;2023-05-02T02:32:00;100400.21;;;9.22;59.75
51147;BME280;37207;53.060;18.726;2023-05-02T02:34:27;100397.20;;;9.22;59.80
51147;BME280;37207;53.060;18.726;2023-05-02T02:36:59;100399.35;;;9.22;59.76
51147;BME280;37207;53.060;18.726;2023-05-02T02:44:45;100394.39;;;9.25;59.99
51147;BME280;37207;53.060;18.726;2023-05-02T02:47:30;100397.21;;;9.26;59.99
51147;BME280;37207;53.060;18.726;2023-05-02T02:50:15;100400.84;;;9.28;60.23
51147;BME280;37207;53.060;18.726;2023-05-02T02:55:39;100397.92;;;9.30;60.17
51147;BME280;37207;53.060;18.726;2023-05-02T02:58:29;100394.29;;;9.32;60.28
51147;BME280;37207;53.060;18.726;2023-05-02T03:01:03;100391.97;;;9.34;60.25
51147;BME280;37207;53.060;18.726;2023-05-02T03:03:32;100395.55;;;9.36;60.49
51147;BME280;37207;53.060;18.726;2023-05-02T03:05:59;100397.23;;;9.37;60.59
51147;BME280;37207;53.060;18.726;2023-05-02T03:08:27;100393.19;;;9.37;60.45
51147;BME280;37207;53.060;18.726;2023-05-02T03:10:53;100393.98;;;9.37;60.60
51147;BME280;37207;53.060;18.726;2023-05-02T03:13:20;100396.23;;;9.37;60.53
51147;BME280;37207;53.060;18.726;2023-05-02T03:18:26;100393.70;;;9.38;60.73
51147;BME280;37207;53.060;18.726;2023-05-02T03:20:52;100397.77;;;9.38;60.79
51147;BME280;37207;53.060;18.726;2023-05-02T03:23:20;100396.41;;;9.39;60.73
51147;BME280;37207;53.060;18.726;2023-05-02T03:25:47;100396.38;;;9.39;60.96
51147;BME280;37207;53.060;18.726;2023-05-02T03:28:15;100396.27;;;9.40;60.84
51147;BME280;37207;53.060;18.726;2023-05-02T03:30:42;100400.54;;;9.39;60.99
51147;BME280;37207;53.060;18.726;2023-05-02T03:33:08;100400.84;;;9.40;61.12
51147;BME280;37207;53.060;18.726;2023-05-02T03:35:35;100405.73;;;9.41;61.03
51147;BME280;37207;53.060;18.726;2023-05-02T03:38:02;100408.70;;;9.43;61.26
51147;BME280;37207;53.060;18.726;2023-05-02T03:40:29;100409.91;;;9.44;61.22
51147;BME280;37207;53.060;18.726;2023-05-02T03:42:56;100412.55;;;9.46;61.33
51147;BME280;37207;53.060;18.726;2023-05-02T03:45:26;100412.28;;;9.48;61.27
51147;BME280;37207;53.060;18.726;2023-05-02T03:47:53;100411.86;;;9.50;61.37
51147;BME280;37207;53.060;18.726;2023-05-02T03:50:19;100415.84;;;9.52;61.50
51147;BME280;37207;53.060;18.726;2023-05-02T03:52:46;100415.95;;;9.54;61.47
51147;BME280;37207;53.060;18.726;2023-05-02T03:55:13;100423.55;;;9.57;61.39
51147;BME280;37207;53.060;18.726;2023-05-02T03:57:40;100424.69;;;9.59;61.46
51147;BME280;37207;53.060;18.726;2023-05-02T04:00:09;100425.11;;;9.61;61.51
51147;BME280;37207;53.060;18.726;2023-05-02T04:02:38;100431.73;;;9.63;61.41
51147;BME280;37207;53.060;18.726;2023-05-02T04:05:07;100441.29;;;9.66;61.65
51147;BME280;37207;53.060;18.726;2023-05-02T04:07:34;100439.83;;;9.69;61.46
51147;BME280;37207;53.060;18.726;2023-05-02T04:10:04;100440.64;;;9.72;61.41
51147;BME280;37207;53.060;18.726;2023-05-02T04:12:36;100441.70;;;9.76;61.54
51147;BME280;37207;53.060;18.726;2023-05-02T04:15:02;100448.02;;;9.80;61.55
51147;BME280;37207;53.060;18.726;2023-05-02T04:17:30;100448.06;;;9.83;61.54
51147;BME280;37207;53.060;18.726;2023-05-02T04:19:56;100445.88;;;9.86;61.69
51147;BME280;37207;53.060;18.726;2023-05-02T04:22:26;100448.73;;;9.90;61.63
51147;BME280;37207;53.060;18.726;2023-05-02T04:24:56;100437.70;;;9.94;61.60
51147;BME280;37207;53.060;18.726;2023-05-02T04:27:24;100435.98;;;9.98;61.62
51147;BME280;37207;53.060;18.726;2023-05-02T04:29:51;100437.41;;;10.00;61.48
51147;BME280;37207;53.060;18.726;2023-05-02T04:32:19;100441.05;;;10.04;61.79
51147;BME280;37207;53.060;18.726;2023-05-02T04:34:46;100443.26;;;10.08;61.78
51147;BME280;37207;53.060;18.726;2023-05-02T04:37:14;100440.59;;;10.11;61.73
51147;BME280;37207;53.060;18.726;2023-05-02T04:39:43;100435.96;;;10.15;61.67
51147;BME280;37207;53.060;18.726;2023-05-02T04:42:16;100438.74;;;10.19;61.86
51147;BME280;37207;53.060;18.726;2023-05-02T04:44:53;100448.81;;;10.23;61.86
51147;BME280;37207;53.060;18.726;2023-05-02T04:47:20;100447.76;;;10.28;61.88
51147;BME280;37207;53.060;18.726;2023-05-02T04:49:46;100449.41;;;10.32;62.00
51147;BME280;37207;53.060;18.726;2023-05-02T04:52:13;100450.92;;;10.37;62.03
51147;BME280;37207;53.060;18.726;2023-05-02T04:54:40;100454.38;;;10.43;62.18
51147;BME280;37207;53.060;18.726;2023-05-02T04:57:07;100456.46;;;10.51;62.10
51147;BME280;37207;53.060;18.726;2023-05-02T04:59:37;100453.81;;;10.58;62.14
51147;BME280;37207;53.060;18.726;2023-05-02T05:02:05;100458.35;;;10.65;62.14
51147;BME280;37207;53.060;18.726;2023-05-02T05:04:33;100456.70;;;10.71;62.04
51147;BME280;37207;53.060;18.726;2023-05-02T05:07:00;100458.39;;;10.77;61.99
51147;BME280;37207;53.060;18.726;2023-05-02T05:09:28;100460.05;;;10.83;61.85
51147;BME280;37207;53.060;18.726;2023-05-02T05:11:55;100463.02;;;10.90;61.79
51147;BME280;37207;53.060;18.726;2023-05-02T05:14:21;100465.41;;;10.96;61.88
51147;BME280;37207;53.060;18.726;2023-05-02T05:16:51;100470.30;;;11.01;61.82
51147;BME280;37207;53.060;18.726;2023-05-02T05:19:18;100470.79;;;11.06;61.68
51147;BME280;37207;53.060;18.726;2023-05-02T05:21:44;100469.09;;;11.11;61.67
51147;BME280;37207;53.060;18.726;2023-05-02T05:24:12;100465.50;;;11.14;61.57
51147;BME280;37207;53.060;18.726;2023-05-02T05:26:39;100465.13;;;11.18;61.62
51147;BME280;37207;53.060;18.726;2023-05-02T05:29:05;100470.64;;;11.22;61.42
51147;BME280;37207;53.060;18.726;2023-05-02T05:31:38;100473.17;;;11.24;61.49
51147;BME280;37207;53.060;18.726;2023-05-02T05:34:05;100476.04;;;11.27;61.48
51147;BME280;37207;53.060;18.726;2023-05-02T05:36:32;100482.05;;;11.31;61.45
51147;BME280;37207;53.060;18.726;2023-05-02T05:39:00;100483.48;;;11.35;61.52
51147;BME280;37207;53.060;18.726;2023-05-02T05:41:27;100487.00;;;11.40;61.35
51147;BME280;37207;53.060;18.726;2023-05-02T05:44:01;100490.58;;;11.44;61.31
51147;BME280;37207;53.060;18.726;2023-05-02T05:46:29;100492.23;;;11.50;61.40
51147;BME280;37207;53.060;18.726;2023-05-02T05:48:56;100495.17;;;11.58;61.44
51147;BME280;37207;53.060;18.726;2023-05-02T05:51:23;100493.20;;;11.64;61.32
51147;BME280;37207;53.060;18.726;2023-05-02T05:53:50;100492.36;;;11.73;61.55
51147;BME280;37207;53.060;18.726;2023-05-02T05:56:17;100492.25;;;11.81;61.34
51147;BME280;37207;53.060;18.726;2023-05-02T05:58:49;100496.58;;;11.92;61.36
51147;BME280;37207;53.060;18.726;2023-05-02T06:01:16;100497.31;;;12.00;61.21
51147;BME280;37207;53.060;18.726;2023-05-02T06:03:43;100500.01;;;12.05;61.09
51147;BME280;37207;53.060;18.726;2023-05-02T06:06:10;100499.98;;;12.09;61.00
51147;BME280;37207;53.060;18.726;2023-05-02T06:08:37;100502.19;;;12.13;61.08
51147;BME280;37207;53.060;18.726;2023-05-02T06:11:08;100506.02;;;12.15;61.25
51147;BME280;37207;53.060;18.726;2023-05-02T06:13:36;100506.09;;;12.18;61.44
51147;BME280;37207;53.060;18.726;2023-05-02T06:16:04;100507.36;;;12.22;61.51
51147;BME280;37207;53.060;18.726;2023-05-02T06:18:31;100510.40;;;12.26;61.66
51147;BME280;37207;53.060;18.726;2023-05-02T06:21:02;100515.69;;;12.30;61.65
51147;BME280;37207;53.060;18.726;2023-05-02T06:23:29;100520.78;;;12.34;61.68
51147;BME280;37207;53.060;18.726;2023-05-02T06:25:58;100519.54;;;12.38;61.75
51147;BME280;37207;53.060;18.726;2023-05-02T06:28:26;100518.05;;;12.45;61.50
51147;BME280;37207;53.060;18.726;2023-05-02T06:31:00;100519.36;;;12.54;61.52
51147;BME280;37207;53.060;18.726;2023-05-02T06:33:28;100520.85;;;12.65;61.44
51147;BME280;37207;53.060;18.726;2023-05-02T06:35:55;100516.94;;;12.76;61.43
51147;BME280;37207;53.060;18.726;2023-05-02T06:38:22;100522.48;;;12.86;61.47
51147;BME280;37207;53.060;18.726;2023-05-02T06:40:50;100535.55;;;12.94;61.68
51147;BME280;37207;53.060;18.726;2023-05-02T06:43:17;100537.50;;;13.01;61.40
51147;BME280;37207;53.060;18.726;2023-05-02T06:45:44;100556.92;;;13.06;61.50
51147;BME280;37207;53.060;18.726;2023-05-02T06:48:11;100550.68;;;13.11;61.51
51147;BME280;37207;53.060;18.726;2023-05-02T06:50:37;100553.46;;;13.15;61.67
51147;BME280;37207;53.060;18.726;2023-05-02T06:53:04;100556.70;;;13.20;61.55
51147;BME280;37207;53.060;18.726;2023-05-02T06:55:31;100555.90;;;13.23;61.38
51147;BME280;37207;53.060;18.726;2023-05-02T06:57:58;100556.85;;;13.26;61.48
51147;BME280;37207;53.060;18.726;2023-05-02T07:00:24;100553.17;;;13.29;61.58
51147;BME280;37207;53.060;18.726;2023-05-02T07:02:51;100552.73;;;13.30;61.39
51147;BME280;37207;53.060;18.726;2023-05-02T07:05:18;100552.11;;;13.31;61.43
51147;BME280;37207;53.060;18.726;2023-05-02T07:07:44;100550.24;;;13.33;61.64
51147;BME280;37207;53.060;18.726;2023-05-02T07:10:11;100563.04;;;13.34;61.70
51147;BME280;37207;53.060;18.726;2023-05-02T07:12:38;100569.23;;;13.32;61.75
51147;BME280;37207;53.060;18.726;2023-05-02T07:15:05;100574.46;;;13.29;61.66
51147;BME280;37207;53.060;18.726;2023-05-02T07:17:33;100581.92;;;13.24;61.72
51147;BME280;37207;53.060;18.726;2023-05-02T07:19:59;100594.52;;;13.18;61.85
51147;BME280;37207;53.060;18.726;2023-05-02T07:22:26;100593.84;;;13.11;61.78
51147;BME280;37207;53.060;18.726;2023-05-02T07:24:57;100600.79;;;13.05;61.97
51147;BME280;37207;53.060;18.726;2023-05-02T07:27:24;100598.45;;;13.01;62.29
51147;BME280;37207;53.060;18.726;2023-05-02T07:29:51;100608.45;;;12.95;62.76
51147;BME280;37207;53.060;18.726;2023-05-02T07:32:19;100610.40;;;12.88;62.84
51147;BME280;37207;53.060;18.726;2023-05-02T07:34:47;100620.16;;;12.81;63.21
51147;BME280;37207;53.060;18.726;2023-05-02T07:37:14;100619.95;;;12.77;63.38
51147;BME280;37207;53.060;18.726;2023-05-02T07:39:40;100620.14;;;12.73;63.48
51147;BME280;37207;53.060;18.726;2023-05-02T07:42:07;100618.11;;;12.69;63.62
51147;BME280;37207;53.060;18.726;2023-05-02T07:44:33;100627.08;;;12.69;64.15
51147;BME280;37207;53.060;18.726;2023-05-02T07:47:01;100625.90;;;12.66;64.34
51147;BME280;37207;53.060;18.726;2023-05-02T07:49:28;100636.08;;;12.64;64.34
51147;BME280;37207;53.060;18.726;2023-05-02T07:51:54;100636.48;;;12.60;64.49
51147;BME280;37207;53.060;18.726;2023-05-02T07:54:22;100643.45;;;12.54;64.55
51147;BME280;37207;53.060;18.726;2023-05-02T07:56:50;100643.48;;;12.47;64.62
51147;BME280;37207;53.060;18.726;2023-05-02T07:59:16;100649.14;;;12.40;64.87
51147;BME280;37207;53.060;18.726;2023-05-02T08:01:43;100655.59;;;12.32;65.15
51147;BME280;37207;53.060;18.726;2023-05-02T08:04:10;100659.76;;;12.27;65.36
51147;BME280;37207;53.060;18.726;2023-05-02T08:06:36;100662.35;;;12.23;65.66
51147;BME280;37207;53.060;18.726;2023-05-02T08:09:03;100663.01;;;12.23;65.86
51147;BME280;37207;53.060;18.726;2023-05-02T08:11:30;100662.46;;;12.24;66.16
51147;BME280;37207;53.060;18.726;2023-05-02T08:13:56;100662.96;;;12.25;66.32
51147;BME280;37207;53.060;18.726;2023-05-02T08:16:23;100662.67;;;12.26;66.46
51147;BME280;37207;53.060;18.726;2023-05-02T08:18:49;100662.13;;;12.29;66.28
51147;BME280;37207;53.060;18.726;2023-05-02T08:21:16;100666.17;;;12.34;66.42
51147;BME280;37207;53.060;18.726;2023-05-02T08:23:42;100666.56;;;12.40;66.49
51147;BME280;37207;53.060;18.726;2023-05-02T08:26:10;100668.81;;;12.48;66.67
51147;BME280;37207;53.060;18.726;2023-05-02T08:28:37;100668.80;;;12.56;66.57
51147;BME280;37207;53.060;18.726;2023-05-02T08:31:03;100674.34;;;12.66;66.60
51147;BME280;37207;53.060;18.726;2023-05-02T08:33:30;100673.91;;;12.74;66.74
51147;BME280;37207;53.060;18.726;2023-05-02T08:35:56;100675.50;;;12.84;66.52
51147;BME280;37207;53.060;18.726;2023-05-02T08:38:23;100673.32;;;12.94;66.53
51147;BME280;37207;53.060;18.726;2023-05-02T08:40:50;100675.95;;;13.03;66.24
51147;BME280;37207;53.060;18.726;2023-05-02T08:43:16;100676.23;;;13.10;66.11
51147;BME280;37207;53.060;18.726;2023-05-02T08:45:43;100680.66;;;13.21;65.99
51147;BME280;37207;53.060;18.726;2023-05-02T08:48:12;100678.91;;;13.35;66.02
51147;BME280;37207;53.060;18.726;2023-05-02T08:50:40;100676.91;;;13.51;65.79
51147;BME280;37207;53.060;18.726;2023-05-02T08:53:10;100680.60;;;13.70;65.65
51147;BME280;37207;53.060;18.726;2023-05-02T08:55:38;100681.69;;;13.90;65.52
51147;BME280;37207;53.060;18.726;2023-05-02T08:58:07;100684.13;;;14.13;65.18
51147;BME280;37207;53.060;18.726;2023-05-02T09:00:37;100689.48;;;14.43;65.38
51147;BME280;37207;53.060;18.726;2023-05-02T09:05:41;100693.11;;;15.21;64.58
51147;BME280;37207;53.060;18.726;2023-05-02T09:08:08;100697.40;;;15.68;63.98
51147;BME280;37207;53.060;18.726;2023-05-02T09:10:35;100704.51;;;16.18;63.45
51147;BME280;37207;53.060;18.726;2023-05-02T09:13:26;100696.39;;;16.94;62.75
51147;BME280;37207;53.060;18.726;2023-05-02T09:16:04;100695.66;;;18.15;61.11
51147;BME280;37207;53.060;18.726;2023-05-02T09:18:51;100694.71;;;19.06;59.07
51147;BME280;37207;53.060;18.726;2023-05-02T09:21:38;100696.31;;;19.54;58.90
51147;BME280;37207;53.060;18.726;2023-05-02T09:24:17;100696.83;;;20.00;57.87
51147;BME280;37207;53.060;18.726;2023-05-02T09:27:01;100701.36;;;20.40;55.88
51147;BME280;37207;53.060;18.726;2023-05-02T09:29:32;100701.81;;;20.65;54.66
51147;BME280;37207;53.060;18.726;2023-05-02T09:32:04;100706.64;;;20.99;53.67
51147;BME280;37207;53.060;18.726;2023-05-02T09:34:32;100708.58;;;21.25;52.36
51147;BME280;37207;53.060;18.726;2023-05-02T09:36:59;100711.13;;;21.46;51.93
51147;BME280;37207;53.060;18.726;2023-05-02T09:39:27;100706.21;;;21.74;51.72
51147;BME280;37207;53.060;18.726;2023-05-02T09:41:55;100707.70;;;22.02;50.95
51147;BME280;37207;53.060;18.726;2023-05-02T09:44:24;100710.03;;;22.28;50.47
51147;BME280;37207;53.060;18.726;2023-05-02T09:46:53;100714.76;;;22.49;49.25
51147;BME280;37207;53.060;18.726;2023-05-02T09:49:41;100723.80;;;22.64;48.12
51147;BME280;37207;53.060;18.726;2023-05-02T09:52:14;100719.70;;;22.68;46.67
51147;BME280;37207;53.060;18.726;2023-05-02T09:54:41;100723.16;;;22.71;47.12
51147;BME280;37207;53.060;18.726;2023-05-02T09:57:08;100721.79;;;22.79;45.84
51147;BME280;37207;53.060;18.726;2023-05-02T09:59:36;100719.73;;;22.97;46.05
51147;BME280;37207;53.060;18.726;2023-05-02T10:02:04;100714.55;;;23.08;44.96
51147;BME280;37207;53.060;18.726;2023-05-02T10:04:33;100718.08;;;23.11;44.11
51147;BME280;37207;53.060;18.726;2023-05-02T10:07:01;100714.60;;;23.15;43.76
51147;BME280;37207;53.060;18.726;2023-05-02T10:09:29;100726.42;;;23.31;43.68
51147;BME280;37207;53.060;18.726;2023-05-02T10:12:01;100723.55;;;23.45;43.10
51147;BME280;37207;53.060;18.726;2023-05-02T10:14:38;100732.60;;;23.64;42.78
51147;BME280;37207;53.060;18.726;2023-05-02T10:17:13;100733.88;;;23.70;41.66
51147;BME280;37207;53.060;18.726;2023-05-02T10:22:22;100738.29;;;23.82;41.44
51147;BME280;37207;53.060;18.726;2023-05-02T10:24:48;100735.05;;;23.89;41.42
51147;BME280;37207;53.060;18.726;2023-05-02T10:27:16;100737.28;;;24.04;41.42
51147;BME280;37207;53.060;18.726;2023-05-02T10:29:45;100733.04;;;24.15;41.40
51147;BME280;37207;53.060;18.726;2023-05-02T10:32:16;100737.88;;;24.38;41.37
51147;BME280;37207;53.060;18.726;2023-05-02T10:34:44;100736.23;;;24.30;40.66
51147;BME280;37207;53.060;18.726;2023-05-02T10:37:11;100741.55;;;24.46;40.30
51147;BME280;37207;53.060;18.726;2023-05-02T10:39:38;100745.11;;;24.55;39.91
51147;BME280;37207;53.060;18.726;2023-05-02T10:42:05;100744.90;;;24.67;39.70
51147;BME280;37207;53.060;18.726;2023-05-02T10:44:39;100740.96;;;24.68;39.27
51147;BME280;37207;53.060;18.726;2023-05-02T10:47:18;100742.95;;;24.69;38.79
51147;BME280;37207;53.060;18.726;2023-05-02T10:49:56;100739.66;;;24.43;38.49
51147;BME280;37207;53.060;18.726;2023-05-02T10:52:29;100741.83;;;24.54;38.08
51147;BME280;37207;53.060;18.726;2023-05-02T10:55:16;100741.18;;;24.28;37.87
51147;BME280;37207;53.060;18.726;2023-05-02T11:00:25;100753.15;;;23.86;38.47
51147;BME280;37207;53.060;18.726;2023-05-02T11:02:52;100753.12;;;24.08;37.97
51147;BME280;37207;53.060;18.726;2023-05-02T11:05:21;100756.55;;;24.11;37.38
51147;BME280;37207;53.060;18.726;2023-05-02T11:07:48;100758.43;;;23.83;37.07
51147;BME280;37207;53.060;18.726;2023-05-02T11:12:48;100758.55;;;23.55;37.42
51147;BME280;37207;53.060;18.726;2023-05-02T11:18:04;100766.16;;;23.19;37.68
51147;BME280;37207;53.060;18.726;2023-05-02T11:20:37;100767.80;;;22.64;37.70
51147;BME280;37207;53.060;18.726;2023-05-02T11:25:48;100777.89;;;21.82;38.90
51147;BME280;37207;53.060;18.726;2023-05-02T11:30:59;100781.95;;;21.49;39.92
51147;BME280;37207;53.060;18.726;2023-05-02T11:33:27;100784.87;;;21.62;40.10
51147;BME280;37207;53.060;18.726;2023-05-02T11:35:55;100785.52;;;21.88;40.85
51147;BME280;37207;53.060;18.726;2023-05-02T11:38:25;100786.69;;;22.14;40.48
51147;BME280;37207;53.060;18.726;2023-05-02T11:41:00;100780.53;;;22.22;39.77
51147;BME280;37207;53.060;18.726;2023-05-02T11:43:28;100779.45;;;22.19;39.66
51147;BME280;37207;53.060;18.726;2023-05-02T11:45:57;100786.92;;;22.00;38.81
51147;BME280;37207;53.060;18.726;2023-05-02T11:48:25;100787.96;;;21.74;38.97
51147;BME280;37207;53.060;18.726;2023-05-02T11:50:57;100794.36;;;21.66;39.30
51147;BME280;37207;53.060;18.726;2023-05-02T11:53:25;100792.08;;;21.70;39.86
51147;BME280;37207;53.060;18.726;2023-05-02T11:58:21;100794.78;;;21.70;39.66
51147;BME280;37207;53.060;18.726;2023-05-02T12:00:49;100801.19;;;21.83;39.68
51147;BME280;37207;53.060;18.726;2023-05-02T12:03:31;100804.27;;;21.90;39.02
51147;BME280;37207;53.060;18.726;2023-05-02T12:06:15;100803.83;;;22.08;39.21
51147;BME280;37207;53.060;18.726;2023-05-02T12:08:44;100808.38;;;22.26;39.06
51147;BME280;37207;53.060;18.726;2023-05-02T12:11:14;100810.02;;;22.15;38.21
51147;BME280;37207;53.060;18.726;2023-05-02T12:13:45;100813.15;;;21.89;37.86
51147;BME280;37207;53.060;18.726;2023-05-02T12:16:13;100813.93;;;21.68;38.87
51147;BME280;37207;53.060;18.726;2023-05-02T12:18:40;100815.03;;;21.45;38.60
51147;BME280;37207;53.060;18.726;2023-05-02T12:21:07;100816.27;;;21.17;38.69
51147;BME280;37207;53.060;18.726;2023-05-02T12:23:34;100819.98;;;20.93;39.28
51147;BME280;37207;53.060;18.726;2023-05-02T12:26:17;100827.82;;;20.89;39.72
51147;BME280;37207;53.060;18.726;2023-05-02T12:28:51;100827.65;;;20.91;40.16
51147;BME280;37207;53.060;18.726;2023-05-02T12:31:20;100826.92;;;20.78;40.22
51147;BME280;37207;53.060;18.726;2023-05-02T12:33:46;100825.52;;;20.61;40.82
51147;BME280;37207;53.060;18.726;2023-05-02T12:36:16;100828.25;;;20.48;40.88
51147;BME280;37207;53.060;18.726;2023-05-02T12:38:57;100831.32;;;20.28;40.97
51147;BME280;37207;53.060;18.726;2023-05-02T12:41:38;100833.21;;;20.05;41.06
51147;BME280;37207;53.060;18.726;2023-05-02T12:44:08;100831.14;;;19.88;41.19
51147;BME280;37207;53.060;18.726;2023-05-02T12:46:35;100834.25;;;19.96;41.64
51147;BME280;37207;53.060;18.726;2023-05-02T12:49:03;100834.61;;;20.02;41.60
51147;BME280;37207;53.060;18.726;2023-05-02T12:51:30;100833.23;;;20.11;41.41
51147;BME280;37207;53.060;18.726;2023-05-02T12:53:58;100837.49;;;20.16;41.26
51147;BME280;37207;53.060;18.726;2023-05-02T12:56:24;100838.99;;;20.13;40.98
51147;BME280;37207;53.060;18.726;2023-05-02T12:58:57;100840.92;;;20.05;40.99
51147;BME280;37207;53.060;18.726;2023-05-02T13:01:31;100845.85;;;19.95;41.07
51147;BME280;37207;53.060;18.726;2023-05-02T13:03:58;100846.04;;;19.83;41.85
51147;BME280;37207;53.060;18.726;2023-05-02T13:06:25;100850.57;;;19.67;42.18
51147;BME280;37207;53.060;18.726;2023-05-02T13:08:51;100856.23;;;19.47;42.66
51147;BME280;37207;53.060;18.726;2023-05-02T13:11:18;100859.58;;;19.33;43.18
51147;BME280;37207;53.060;18.726;2023-05-02T13:13:45;100861.83;;;19.22;43.38
51147;BME280;37207;53.060;18.726;2023-05-02T13:16:12;100863.71;;;19.18;43.87
51147;BME280;37207;53.060;18.726;2023-05-02T13:18:39;100865.41;;;19.19;44.12
51147;BME280;37207;53.060;18.726;2023-05-02T13:21:05;100870.14;;;19.17;43.74
51147;BME280;37207;53.060;18.726;2023-05-02T13:23:32;100871.48;;;19.12;43.67
51147;BME280;37207;53.060;18.726;2023-05-02T13:25:59;100870.25;;;19.10;44.00
51147;BME280;37207;53.060;18.726;2023-05-02T13:28:25;100871.54;;;19.07;44.24